Time;durP1;ratioP1;P1;durP2;ratioP2;P2;SDS_P1;SDS_P2;PMS_P1;PMS_P2;Temp;Humidity;BMP_temperature;BMP_pressure;BME280_temperature;BME280_humidity;BME280_pressure;Samples;Min_cycle;Max_cycle;Signal;HPM_P1;HPM_P2
2023/06/19 00:00:34;;;;;;;15.47;13.90;;;20.10;63.30;;;;;;5115643;28;20440;-68
2023/06/19 00:03:01;;;;;;;13.60;12.30;;;20.10;63.70;;;;;;5115328;28;20448;-68
2023/06/19 00:05:28;;;;;;;14.77;13.20;;;20.10;63.70;;;;;;5115269;28;20804;-68
2023/06/19 00:07:56;;;;;;;13.30;11.60;;;20.00;63.90;;;;;;5115122;28;20465;-69
2023/06/19 00:10:23;;;;;;;13.47;12.07;;;20.00;64.10;;;;;;5115001;28;20432;-68
2023/06/19 00:12:50;;;;;;;14.10;10.87;;;19.90;64.30;;;;;;5115434;28;20441;-68
2023/06/19 00:15:17;;;;;;;13.87;12.10;;;19.90;64.60;;;;;;5115345;28;20501;-68
2023/06/19 00:17:44;;;;;;;14.43;13.00;;;20.00;64.60;;;;;;5115019;28;20444;-69
2023/06/19 00:20:13;;;;;;;14.13;12.47;;;20.00;64.70;;;;;;5115245;28;20440;-68
2023/06/19 00:22:40;;;;;;;14.70;11.90;;;20.00;64.60;;;;;;5115385;28;20555;-68
2023/06/19 00:25:09;;;;;;;14.17;12.17;;;20.00;64.60;;;;;;5114845;28;20494;-69
2023/06/19 00:27:36;;;;;;;13.97;12.57;;;20.00;64.80;;;;;;5114801;28;20923;-68
2023/06/19 00:30:06;;;;;;;14.20;12.57;;;20.00;65.00;;;;;;5114979;28;20479;-68
2023/06/19 00:32:45;;;;;;;15.50;13.37;;;20.00;65.80;;;;;;5115008;28;20449;-68
2023/06/19 00:35:12;;;;;;;13.07;11.67;;;19.90;66.30;;;;;;5114646;28;20427;-68
2023/06/19 00:37:39;;;;;;;14.50;13.10;;;19.90;66.40;;;;;;5114876;28;20441;-68
2023/06/19 00:40:11;;;;;;;14.23;12.17;;;20.00;66.30;;;;;;5114401;28;20487;-68
2023/06/19 00:42:38;;;;;;;14.07;12.63;;;19.90;66.20;;;;;;5114535;28;20431;-69
2023/06/19 00:45:06;;;;;;;13.37;11.90;;;19.90;66.00;;;;;;5114373;28;20482;-69
2023/06/19 00:47:35;;;;;;;13.20;12.00;;;19.80;66.20;;;;;;5114769;28;20479;-68
2023/06/19 00:50:02;;;;;;;12.40;11.20;;;19.70;66.30;;;;;;5114707;28;20436;-68
2023/06/19 00:52:29;;;;;;;12.67;11.37;;;19.70;66.30;;;;;;5114587;28;20448;-69
2023/06/19 00:54:56;;;;;;;13.60;11.50;;;19.70;66.50;;;;;;5114767;28;20528;-68
2023/06/19 00:57:24;;;;;;;15.17;13.50;;;19.70;66.40;;;;;;5114226;28;20440;-68
2023/06/19 00:59:52;;;;;;;13.13;11.87;;;19.80;66.60;;;;;;5114400;28;20488;-68
2023/06/19 01:02:23;;;;;;;13.83;12.03;;;19.70;66.30;;;;;;5114469;28;20442;-68
2023/06/19 01:04:51;;;;;;;14.93;13.07;;;19.70;66.50;;;;;;5114209;28;20439;-68
2023/06/19 01:07:23;;;;;;;14.53;13.07;;;19.70;66.70;;;;;;5114438;28;20952;-68
2023/06/19 01:09:55;;;;;;;14.33;12.43;;;19.70;66.90;;;;;;5114547;28;20791;-68
2023/06/19 01:12:29;;;;;;;15.77;12.57;;;19.70;66.90;;;;;;5114441;28;20771;-68
2023/06/19 01:14:59;;;;;;;12.93;11.73;;;19.70;66.90;;;;;;5113842;28;20461;-68
2023/06/19 01:17:28;;;;;;;17.33;13.07;;;19.70;66.60;;;;;;5114504;28;20428;-68
2023/06/19 01:19:55;;;;;;;13.03;11.83;;;19.70;66.00;;;;;;5114110;28;20820;-70
2023/06/19 01:22:30;;;;;;;12.97;11.67;;;19.70;66.30;;;;;;5114058;28;20475;-68
2023/06/19 01:24:57;;;;;;;12.67;11.43;;;19.70;66.40;;;;;;5113908;28;20426;-68
2023/06/19 01:27:29;;;;;;;14.03;12.63;;;19.70;66.40;;;;;;5113704;28;20436;-68
2023/06/19 01:29:57;;;;;;;13.13;11.93;;;19.70;66.60;;;;;;5113751;28;20466;-68
2023/06/19 01:32:27;;;;;;;14.53;13.10;;;19.70;66.80;;;;;;5113744;28;20922;-69
2023/06/19 01:34:55;;;;;;;15.30;13.63;;;19.70;66.90;;;;;;5113612;28;20515;-68
2023/06/19 01:37:27;;;;;;;13.97;12.47;;;19.70;66.80;;;;;;5113663;28;20436;-69
2023/06/19 01:39:56;;;;;;;14.33;12.70;;;19.70;67.30;;;;;;5113692;28;20468;-68
2023/06/19 01:42:24;;;;;;;13.10;11.80;;;19.70;67.10;;;;;;5113991;28;20440;-68
2023/06/19 01:44:52;;;;;;;14.30;12.87;;;19.80;67.30;;;;;;5113506;28;20939;-68
2023/06/19 01:47:19;;;;;;;14.03;12.63;;;19.80;67.30;;;;;;5114069;28;20463;-68
2023/06/19 01:49:47;;;;;;;13.93;12.63;;;19.80;67.70;;;;;;5113923;28;20527;-68
2023/06/19 01:52:14;;;;;;;13.47;12.07;;;19.80;68.40;;;;;;5113525;28;20489;-68
2023/06/19 01:54:41;;;;;;;13.07;11.77;;;19.80;68.50;;;;;;5113710;28;20473;-68
2023/06/19 01:57:09;;;;;;;13.90;12.50;;;19.80;68.80;;;;;;5113841;28;20464;-68
2023/06/19 01:59:36;;;;;;;14.33;12.60;;;19.80;68.90;;;;;;5113699;28;20436;-68
2023/06/19 02:02:06;;;;;;;13.80;12.33;;;19.80;68.50;;;;;;5113433;28;20448;-68
2023/06/19 02:04:33;;;;;;;13.67;11.77;;;19.80;68.40;;;;;;5113459;28;20455;-68
2023/06/19 02:07:00;;;;;;;13.80;12.40;;;19.80;68.90;;;;;;5113932;28;20501;-68
2023/06/19 02:09:27;;;;;;;14.60;12.90;;;19.80;68.80;;;;;;5113664;28;20435;-68
2023/06/19 02:11:54;;;;;;;14.60;13.10;;;19.80;68.30;;;;;;5113616;28;20436;-68
2023/06/19 02:14:23;;;;;;;12.80;11.47;;;19.80;68.00;;;;;;5113175;28;20964;-68
2023/06/19 02:16:49;;;;;;;14.63;13.13;;;19.70;68.10;;;;;;5113577;28;20436;-69
2023/06/19 02:19:16;;;;;;;15.60;13.97;;;19.70;68.00;;;;;;5113341;28;20524;-68
2023/06/19 02:21:43;;;;;;;14.57;12.93;;;19.70;68.40;;;;;;5113569;28;20524;-68
2023/06/19 02:24:10;;;;;;;14.63;12.50;;;19.60;68.80;;;;;;5113609;28;20508;-68
2023/06/19 02:26:37;;;;;;;17.00;15.17;;;19.70;69.20;;;;;;5113591;28;20511;-68
2023/06/19 02:29:04;;;;;;;15.73;14.03;;;19.70;68.80;;;;;;5113385;28;20479;-68
2023/06/19 02:31:32;;;;;;;17.37;14.77;;;19.70;69.80;;;;;;5113198;28;20929;-68
2023/06/19 02:33:59;;;;;;;15.13;13.20;;;19.70;69.20;;;;;;5113441;28;20506;-68
2023/06/19 02:36:26;;;;;;;15.37;13.80;;;19.70;69.60;;;;;;5113500;28;20520;-68
2023/06/19 02:38:53;;;;;;;13.13;11.73;;;19.70;69.60;;;;;;5113085;28;20444;-68
2023/06/19 02:41:20;;;;;;;12.93;11.60;;;19.60;69.50;;;;;;5115675;28;20436;-68
2023/06/19 02:43:48;;;;;;;13.07;11.77;;;19.60;69.80;;;;;;5117049;28;20439;-68
2023/06/19 02:46:15;;;;;;;19.73;12.50;;;19.60;70.20;;;;;;5116804;28;20997;-68
2023/06/19 02:48:43;;;;;;;13.40;12.10;;;19.50;70.40;;;;;;5117125;28;20435;-68
2023/06/19 02:51:10;;;;;;;12.37;11.17;;;19.60;70.50;;;;;;5117097;28;20469;-68
2023/06/19 02:53:37;;;;;;;14.23;12.90;;;19.60;70.70;;;;;;5116513;28;20989;-68
2023/06/19 02:56:05;;;;;;;14.63;13.20;;;19.60;70.40;;;;;;5116898;28;20525;-68
2023/06/19 02:58:32;;;;;;;14.53;13.03;;;19.60;70.50;;;;;;5116491;28;20437;-68
2023/06/19 03:00:59;;;;;;;13.93;12.60;;;19.70;70.10;;;;;;5116898;28;20479;-68
2023/06/19 03:03:26;;;;;;;14.97;13.50;;;19.70;70.20;;;;;;5116436;28;20444;-68
2023/06/19 03:05:54;;;;;;;13.70;12.00;;;19.70;69.80;;;;;;5116382;28;20499;-68
2023/06/19 03:08:21;;;;;;;14.13;12.50;;;19.70;69.90;;;;;;5116352;28;20494;-68
2023/06/19 03:10:48;;;;;;;14.77;13.30;;;19.80;70.10;;;;;;5116763;28;20561;-68
2023/06/19 03:13:15;;;;;;;14.47;12.97;;;19.80;70.50;;;;;;5116636;28;20871;-69
2023/06/19 03:15:42;;;;;;;13.60;12.30;;;19.80;70.10;;;;;;5116650;28;20821;-68
2023/06/19 03:18:10;;;;;;;13.10;11.73;;;19.80;70.40;;;;;;5116392;28;20525;-68
2023/06/19 03:20:37;;;;;;;14.97;12.40;;;19.90;70.00;;;;;;5116015;28;20926;-68
2023/06/19 03:23:06;;;;;;;13.47;12.27;;;19.90;69.30;;;;;;5116154;28;20425;-68
2023/06/19 03:25:34;;;;;;;14.50;13.00;;;19.90;70.30;;;;;;5116042;28;20445;-68
2023/06/19 03:28:02;;;;;;;12.70;11.50;;;19.90;70.80;;;;;;5115963;28;20446;-68
2023/06/19 03:30:29;;;;;;;14.37;11.00;;;19.90;70.80;;;;;;5116016;28;20996;-68
2023/06/19 03:32:56;;;;;;;13.43;12.03;;;19.90;70.70;;;;;;5116002;28;20446;-68
2023/06/19 03:35:23;;;;;;;13.10;11.70;;;19.90;70.90;;;;;;5116204;28;20561;-68
2023/06/19 03:37:50;;;;;;;11.90;10.70;;;19.90;71.20;;;;;;5116221;28;20440;-68
2023/06/19 03:40:19;;;;;;;11.20;10.20;;;20.00;71.70;;;;;;5115826;28;20499;-69
2023/06/19 03:42:45;;;;;;;11.97;10.67;;;20.00;72.00;;;;;;5116302;28;20449;-69
2023/06/19 03:45:12;;;;;;;13.90;12.10;;;20.00;72.60;;;;;;5116031;28;20428;-68
2023/06/19 03:47:39;;;;;;;15.30;13.80;;;19.90;72.30;;;;;;5115805;28;20496;-68
2023/06/19 03:50:09;;;;;;;13.13;11.73;;;19.90;72.80;;;;;;5116002;28;20811;-68
2023/06/19 03:52:36;;;;;;;13.00;11.60;;;19.90;73.20;;;;;;5115555;28;20435;-68
2023/06/19 03:55:04;;;;;;;13.87;12.47;;;19.90;73.30;;;;;;5115881;28;20471;-68
2023/06/19 03:57:32;;;;;;;13.20;11.93;;;19.90;73.60;;;;;;5115862;28;20497;-68
2023/06/19 03:59:59;;;;;;;16.17;14.67;;;20.00;74.40;;;;;;5115693;28;20435;-68
2023/06/19 04:02:27;;;;;;;13.47;11.83;;;20.00;74.50;;;;;;5115422;28;20445;-68
2023/06/19 04:04:54;;;;;;;12.67;11.20;;;19.90;74.20;;;;;;5115392;28;20960;-68
2023/06/19 04:07:21;;;;;;;13.60;12.20;;;19.90;74.10;;;;;;5115636;28;20523;-68
2023/06/19 04:09:48;;;;;;;14.30;12.90;;;20.00;74.40;;;;;;5115455;28;20481;-68
2023/06/19 04:12:15;;;;;;;13.30;11.90;;;20.00;74.40;;;;;;5115336;28;20475;-70
2023/06/19 04:14:43;;;;;;;14.30;12.30;;;20.00;74.70;;;;;;5115046;28;21031;-68
2023/06/19 04:17:10;;;;;;;12.90;11.70;;;20.00;74.50;;;;;;5115065;28;20975;-68
2023/06/19 04:19:38;;;;;;;15.63;14.03;;;20.00;74.40;;;;;;5115087;28;20448;-68
2023/06/19 04:22:06;;;;;;;14.00;12.60;;;20.10;74.30;;;;;;5114815;28;20483;-69
2023/06/19 04:24:35;;;;;;;17.43;12.03;;;20.10;74.90;;;;;;5115220;28;20479;-68
2023/06/19 04:27:03;;;;;;;13.27;12.07;;;20.10;75.20;;;;;;5114946;28;20486;-69
2023/06/19 04:29:31;;;;;;;15.37;13.47;;;20.10;76.00;;;;;;5115104;28;20470;-68
2023/06/19 04:32:00;;;;;;;14.80;13.10;;;20.10;76.00;;;;;;5115095;28;20444;-68
2023/06/19 04:34:28;;;;;;;15.27;11.77;;;20.10;75.80;;;;;;5115142;28;20507;-69
2023/06/19 04:36:58;;;;;;;14.27;12.77;;;20.20;75.30;;;;;;5115180;28;20447;-69
2023/06/19 04:39:25;;;;;;;11.87;10.67;;;20.20;74.90;;;;;;5115024;28;20436;-69
2023/06/19 04:41:52;;;;;;;11.73;10.53;;;20.20;74.80;;;;;;5114738;28;20853;-68
2023/06/19 04:44:19;;;;;;;12.60;11.30;;;20.20;71.90;;;;;;5114949;28;20467;-68
2023/06/19 04:46:51;;;;;;;13.30;9.90;;;20.30;70.50;;;;;;5114588;28;20496;-68
2023/06/19 04:49:19;;;;;;;9.30;8.10;;;20.40;69.40;;;;;;5114537;28;20837;-68
2023/06/19 04:51:46;;;;;;;12.23;10.90;;;20.40;66.50;;;;;;5114935;28;20520;-68
2023/06/19 04:54:13;;;;;;;13.40;11.00;;;20.40;67.40;;;;;;5114350;28;20918;-68
2023/06/19 04:56:40;;;;;;;10.20;9.20;;;20.50;68.30;;;;;;5114404;28;20449;-68
2023/06/19 04:59:07;;;;;;;9.33;8.43;;;20.50;67.20;;;;;;5114264;28;20440;-69
2023/06/19 05:01:34;;;;;;;9.57;8.57;;;20.60;64.60;;;;;;5114648;28;20833;-69
2023/06/19 05:04:11;;;;;;;9.27;8.20;;;20.70;64.90;;;;;;5113449;28;20776;-70
2023/06/19 05:06:42;;;;;;;11.00;9.23;;;20.80;66.30;;;;;;5105301;28;20992;-69
2023/06/19 05:09:09;;;;;;;9.50;8.30;;;20.90;66.10;;;;;;5094370;28;20433;-68
2023/06/19 05:11:36;;;;;;;10.90;9.10;;;20.90;65.70;;;;;;5094119;28;20441;-68
2023/06/19 05:14:03;;;;;;;9.60;8.17;;;21.00;63.90;;;;;;5094371;28;20439;-69
2023/06/19 05:16:30;;;;;;;10.57;8.30;;;21.10;62.60;;;;;;5094325;28;20499;-68
2023/06/19 05:18:57;;;;;;;9.20;8.30;;;21.20;62.60;;;;;;5093541;28;20528;-68
2023/06/19 05:21:29;;;;;;;9.30;8.30;;;21.20;62.30;;;;;;5093324;28;20499;-68
2023/06/19 05:24:00;;;;;;;12.13;8.57;;;21.30;62.20;;;;;;5093674;28;20459;-68
2023/06/19 05:26:42;;;;;;;9.43;8.40;;;21.40;61.30;;;;;;5093103;28;20438;-74
2023/06/19 05:29:11;;;;;;;9.30;7.17;;;21.50;61.50;;;;;;5113997;28;20405;-68
2023/06/19 05:31:42;;;;;;;9.70;8.70;;;21.60;61.40;;;;;;5113969;28;20519;-68
2023/06/19 05:34:10;;;;;;;8.80;7.90;;;21.70;61.50;;;;;;5114186;28;20491;-68
2023/06/19 05:36:45;;;;;;;14.23;8.50;;;21.80;61.40;;;;;;5114033;28;20517;-68
2023/06/19 05:39:13;;;;;;;9.20;8.30;;;21.90;61.30;;;;;;5113697;28;20424;-68
2023/06/19 05:41:45;;;;;;;9.60;7.33;;;22.00;60.90;;;;;;5107440;28;20948;-68
2023/06/19 05:44:15;;;;;;;9.40;8.40;;;22.10;60.10;;;;;;5093564;28;20505;-68
2023/06/19 05:46:43;;;;;;;7.77;7.07;;;22.20;59.90;;;;;;5102531;28;20446;-69
2023/06/19 05:49:10;;;;;;;10.20;8.60;;;22.30;59.60;;;;;;5103030;28;20549;-69
2023/06/19 05:51:42;;;;;;;11.93;7.63;;;22.40;59.60;;;;;;5092759;28;20464;-69
2023/06/19 05:54:09;;;;;;;10.40;7.03;;;22.50;59.50;;;;;;5106307;28;20441;-69
2023/06/19 05:56:37;;;;;;;7.53;6.73;;;22.60;59.40;;;;;;5108458;28;20985;-69
2023/06/19 05:59:04;;;;;;;13.13;6.77;;;22.60;59.60;;;;;;5113436;28;20442;-69
2023/06/19 06:01:31;;;;;;;9.90;8.50;;;22.70;59.20;;;;;;5113384;28;20520;-68
2023/06/19 06:03:58;;;;;;;16.90;7.47;;;22.80;59.10;;;;;;5111403;28;20443;-69
2023/06/19 06:06:30;;;;;;;11.50;7.30;;;22.80;59.30;;;;;;5113291;28;20445;-69
2023/06/19 06:08:57;;;;;;;9.27;7.67;;;22.90;59.60;;;;;;5113436;28;20474;-69
2023/06/19 06:11:26;;;;;;;7.40;6.53;;;23.00;59.80;;;;;;5097064;28;20442;-68
2023/06/19 06:13:54;;;;;;;12.03;7.07;;;23.10;60.10;;;;;;5100336;28;20717;-68
2023/06/19 06:16:27;;;;;;;8.37;7.60;;;23.20;60.50;;;;;;5110720;28;20482;-68
2023/06/19 06:18:54;;;;;;;8.93;8.03;;;23.30;60.50;;;;;;5103651;28;20473;-70
2023/06/19 06:21:21;;;;;;;7.60;6.40;;;23.40;60.10;;;;;;5098825;28;20535;-68
2023/06/19 06:23:48;;;;;;;8.70;7.57;;;23.50;59.50;;;;;;5098135;28;20461;-68
2023/06/19 06:26:15;;;;;;;10.70;7.20;;;23.60;59.20;;;;;;5097194;28;20486;-69
2023/06/19 06:28:42;;;;;;;8.70;6.53;;;23.70;58.80;;;;;;5096803;28;20923;-69
2023/06/19 06:31:10;;;;;;;10.33;6.73;;;23.70;58.60;;;;;;5096883;28;20492;-68
2023/06/19 06:33:37;;;;;;;9.30;8.00;;;23.80;58.60;;;;;;5096688;28;20431;-69
2023/06/19 06:36:04;;;;;;;10.37;7.67;;;23.80;58.40;;;;;;5097096;28;20563;-69
2023/06/19 06:38:31;;;;;;;9.77;8.73;;;23.80;58.10;;;;;;5097003;28;20762;-69
2023/06/19 06:40:59;;;;;;;11.90;8.23;;;23.80;58.40;;;;;;5096594;28;20439;-69
2023/06/19 06:43:26;;;;;;;7.63;6.83;;;23.80;59.30;;;;;;5096836;28;20446;-69
2023/06/19 06:45:53;;;;;;;8.93;8.03;;;23.70;58.60;;;;;;5096840;28;20803;-69
2023/06/19 06:48:21;;;;;;;13.80;7.70;;;23.70;58.80;;;;;;5096789;28;20470;-68
2023/06/19 06:50:48;;;;;;;7.43;6.67;;;23.60;58.60;;;;;;5096409;28;20495;-69
2023/06/19 06:53:15;;;;;;;10.50;9.43;;;23.60;58.60;;;;;;5096815;28;20435;-69
2023/06/19 06:55:42;;;;;;;10.13;7.87;;;23.60;58.40;;;;;;5096507;28;20559;-69
2023/06/19 06:58:09;;;;;;;8.27;7.40;;;23.60;58.70;;;;;;5096254;28;20928;-69
2023/06/19 07:00:36;;;;;;;8.23;6.60;;;23.60;58.60;;;;;;5096227;28;20947;-69
2023/06/19 07:03:03;;;;;;;7.47;6.20;;;23.60;57.70;;;;;;5096197;28;20940;-69
2023/06/19 07:05:32;;;;;;;8.43;7.50;;;23.60;57.20;;;;;;5096202;28;20440;-68
2023/06/19 07:07:59;;;;;;;9.10;6.03;;;23.60;57.30;;;;;;5094632;28;20440;-69
2023/06/19 07:10:26;;;;;;;7.20;6.23;;;23.60;57.00;;;;;;5096439;28;20844;-69
2023/06/19 07:12:53;;;;;;;8.13;7.33;;;23.60;57.30;;;;;;5096334;28;20439;-69
2023/06/19 07:15:20;;;;;;;7.40;6.10;;;23.70;57.70;;;;;;5096139;28;20870;-69
2023/06/19 07:17:47;;;;;;;7.83;6.63;;;23.80;58.00;;;;;;5096483;28;20758;-68
2023/06/19 07:20:15;;;;;;;7.87;6.83;;;23.90;59.00;;;;;;5095829;28;20560;-69
2023/06/19 07:22:44;;;;;;;9.37;8.47;;;24.10;59.00;;;;;;5095637;28;20571;-68
2023/06/19 07:25:12;;;;;;;8.13;7.30;;;24.30;58.00;;;;;;5095811;28;20479;-69
2023/06/19 07:27:40;;;;;;;10.23;6.50;;;24.50;56.90;;;;;;5095280;28;20848;-69
2023/06/19 07:30:12;;;;;;;7.83;6.57;;;24.60;56.90;;;;;;5095650;28;20483;-69
2023/06/19 07:32:39;;;;;;;6.57;5.90;;;24.70;56.80;;;;;;5095704;28;20490;-69
2023/06/19 07:35:07;;;;;;;8.63;6.10;;;24.90;56.90;;;;;;5095875;28;20468;-68
2023/06/19 07:37:34;;;;;;;8.40;6.73;;;25.00;56.90;;;;;;5095832;28;20794;-68
2023/06/19 07:40:02;;;;;;;11.30;6.40;;;25.10;57.70;;;;;;5095416;28;20513;-69
2023/06/19 07:42:29;;;;;;;8.27;6.77;;;25.20;58.10;;;;;;5095422;28;20447;-68
2023/06/19 07:44:56;;;;;;;6.57;5.97;;;25.40;58.10;;;;;;5095289;28;20510;-69
2023/06/19 07:47:23;;;;;;;8.50;6.67;;;25.60;57.40;;;;;;5095502;28;20504;-69
2023/06/19 07:49:50;;;;;;;8.20;5.90;;;25.70;57.50;;;;;;5095607;28;20501;-69
2023/06/19 07:52:17;;;;;;;9.60;5.83;;;25.90;57.60;;;;;;5095679;28;20517;-69
2023/06/19 07:54:52;;;;;;;9.00;4.30;;;26.20;56.40;;;;;;5095493;28;20497;-69
2023/06/19 07:57:21;;;;;;;7.57;5.33;;;26.30;54.40;;;;;;5095005;28;20989;-69
2023/06/19 07:59:48;;;;;;;5.77;5.27;;;26.40;52.80;;;;;;5095328;28;20487;-69
2023/06/19 08:02:15;;;;;;;8.37;6.27;;;26.50;52.80;;;;;;5094468;28;20430;-69
2023/06/19 08:04:42;;;;;;;7.10;4.90;;;26.60;52.30;;;;;;5095155;28;20502;-69
2023/06/19 08:07:09;;;;;;;9.10;6.10;;;26.70;52.20;;;;;;5095279;28;20536;-70
2023/06/19 08:09:36;;;;;;;7.90;6.00;;;26.80;51.80;;;;;;5095362;28;20474;-69
2023/06/19 08:12:03;;;;;;;6.90;5.40;;;26.90;51.80;;;;;;5095289;28;20433;-69
2023/06/19 08:14:32;;;;;;;7.70;5.40;;;27.10;51.80;;;;;;5095074;28;20483;-69
2023/06/19 08:16:59;;;;;;;5.90;5.20;;;27.20;51.80;;;;;;5095061;28;20474;-68
2023/06/19 08:19:26;;;;;;;6.17;5.57;;;27.30;50.90;;;;;;5095038;28;20848;-69
2023/06/19 08:21:52;;;;;;;6.10;5.03;;;27.50;51.00;;;;;;5094187;28;20560;-68
2023/06/19 08:24:19;;;;;;;5.80;4.43;;;27.70;49.90;;;;;;5094880;28;20444;-68
2023/06/19 08:26:50;;;;;;;5.73;4.93;;;27.80;49.70;;;;;;5094847;28;20433;-69
2023/06/19 08:29:17;;;;;;;6.20;4.57;;;28.00;49.30;;;;;;5094732;28;20438;-68
2023/06/19 08:31:46;;;;;;;8.57;5.10;;;28.10;47.60;;;;;;5094816;28;20470;-70
2023/06/19 08:34:13;;;;;;;8.07;4.63;;;28.20;47.60;;;;;;5094769;28;20840;-69
2023/06/19 08:36:39;;;;;;;4.57;3.80;;;28.30;47.60;;;;;;5094328;28;20470;-69
2023/06/19 08:39:08;;;;;;;4.77;4.27;;;28.50;48.20;;;;;;5093701;28;20496;-69
2023/06/19 08:41:35;;;;;;;5.47;4.40;;;28.60;47.50;;;;;;5094599;28;20450;-69
2023/06/19 08:44:04;;;;;;;5.67;4.47;;;28.70;46.80;;;;;;5094376;28;20442;-69
2023/06/19 08:46:31;;;;;;;5.50;4.70;;;28.80;46.40;;;;;;5094523;28;20443;-68
2023/06/19 08:49:00;;;;;;;4.47;3.97;;;28.80;45.70;;;;;;5094417;28;20475;-68
2023/06/19 08:51:28;;;;;;;5.63;4.17;;;28.90;45.30;;;;;;5094422;28;20465;-69
2023/06/19 08:53:57;;;;;;;5.70;4.70;;;28.90;45.00;;;;;;5094631;28;20446;-68
2023/06/19 08:56:24;;;;;;;5.47;4.27;;;29.00;45.10;;;;;;5093984;28;20531;-68
2023/06/19 08:58:51;;;;;;;5.10;4.60;;;29.10;45.90;;;;;;5093914;28;20479;-69
2023/06/19 09:01:19;;;;;;;5.47;4.90;;;29.10;45.60;;;;;;5094001;28;20478;-68
2023/06/19 09:03:46;;;;;;;6.37;4.70;;;29.20;45.50;;;;;;5093901;28;20438;-68
2023/06/19 09:06:17;;;;;;;8.53;5.03;;;29.20;45.10;;;;;;5094275;28;20474;-69
2023/06/19 09:08:44;;;;;;;5.70;5.10;;;29.30;45.10;;;;;;5093842;28;20467;-69
2023/06/19 09:11:13;;;;;;;4.57;4.17;;;29.30;44.40;;;;;;5094171;28;20431;-68
2023/06/19 09:13:40;;;;;;;8.13;5.60;;;29.40;44.40;;;;;;5094078;28;20519;-68
2023/06/19 09:16:09;;;;;;;5.03;4.50;;;29.40;45.00;;;;;;5093687;28;20995;-69
2023/06/19 09:18:44;;;;;;;5.63;5.03;;;29.50;44.20;;;;;;5094175;28;20678;-69
2023/06/19 09:21:18;;;;;;;5.63;5.03;;;29.50;43.20;;;;;;5093959;28;20874;-69
2023/06/19 09:23:46;;;;;;;5.97;5.13;;;29.60;42.90;;;;;;5094147;28;20424;-68
2023/06/19 09:26:15;;;;;;;6.43;4.83;;;29.60;42.80;;;;;;5093917;28;20435;-68
2023/06/19 09:28:43;;;;;;;5.87;5.30;;;29.60;43.50;;;;;;5093802;28;20435;-68
2023/06/19 09:31:10;;;;;;;5.20;4.70;;;29.60;42.80;;;;;;5093967;28;20810;-68
2023/06/19 09:33:38;;;;;;;5.33;4.57;;;29.70;43.20;;;;;;5093778;28;20806;-68
2023/06/19 09:36:07;;;;;;;8.30;5.43;;;29.70;42.60;;;;;;5093389;28;20969;-68
2023/06/19 09:38:38;;;;;;;7.43;5.20;;;29.80;42.10;;;;;;5093743;28;20774;-68
2023/06/19 09:41:06;;;;;;;6.10;5.50;;;29.90;41.80;;;;;;5093587;28;20466;-68
2023/06/19 09:43:36;;;;;;;6.20;4.93;;;29.90;42.00;;;;;;5093328;28;20937;-69
2023/06/19 09:46:04;;;;;;;7.80;4.70;;;29.90;42.50;;;;;;5093690;28;20481;-69
2023/06/19 09:48:34;;;;;;;5.23;4.73;;;30.00;44.10;;;;;;5093927;28;20493;-68
2023/06/19 09:51:10;;;;;;;6.80;5.13;;;30.00;42.50;;;;;;5097737;28;20552;-68
2023/06/19 09:53:38;;;;;;;5.77;4.80;;;30.10;42.10;;;;;;5097849;28;20463;-68
2023/06/19 09:56:05;;;;;;;6.33;4.60;;;30.10;42.00;;;;;;5097904;28;20516;-68
2023/06/19 09:58:33;;;;;;;5.00;4.50;;;30.20;42.60;;;;;;5097383;28;20968;-68
2023/06/19 10:01:01;;;;;;;6.23;5.60;;;30.30;42.80;;;;;;5097735;28;20514;-68
2023/06/19 10:03:32;;;;;;;6.83;5.93;;;30.40;42.30;;;;;;5097373;28;20431;-68
2023/06/19 10:06:00;;;;;;;5.27;4.73;;;30.40;41.40;;;;;;5097309;28;20917;-69
2023/06/19 10:08:30;;;;;;;5.03;4.53;;;30.50;41.60;;;;;;5097691;28;20445;-68
2023/06/19 10:10:58;;;;;;;6.13;5.53;;;30.50;41.50;;;;;;5097243;28;20440;-68
2023/06/19 10:13:33;;;;;;;6.00;5.30;;;30.60;40.30;;;;;;5096165;28;20481;-69
2023/06/19 10:16:00;;;;;;;8.00;5.77;;;30.60;40.00;;;;;;5096706;28;20421;-68
2023/06/19 10:18:28;;;;;;;6.90;5.10;;;30.60;40.60;;;;;;5096000;28;20479;-69
2023/06/19 10:20:56;;;;;;;5.70;5.20;;;30.60;41.10;;;;;;5096268;28;21030;-68
2023/06/19 10:23:25;;;;;;;6.37;5.77;;;30.70;40.90;;;;;;5097000;28;20475;-69
2023/06/19 10:25:59;;;;;;;6.17;5.50;;;30.70;40.90;;;;;;5097280;28;20494;-69
2023/06/19 10:28:28;;;;;;;6.27;5.67;;;30.80;39.90;;;;;;5097236;28;20496;-68
2023/06/19 10:30:56;;;;;;;5.70;5.07;;;30.90;39.80;;;;;;5097224;28;20543;-69
2023/06/19 10:33:24;;;;;;;6.20;5.60;;;30.90;39.00;;;;;;5097199;28;20439;-69
2023/06/19 10:35:51;;;;;;;6.10;5.37;;;30.90;39.30;;;;;;5097144;28;20485;-68
2023/06/19 10:38:18;;;;;;;6.77;6.07;;;30.90;38.40;;;;;;5096759;28;20481;-69
2023/06/19 10:40:46;;;;;;;5.97;5.37;;;30.90;38.20;;;;;;5097031;28;20440;-69
2023/06/19 10:43:21;;;;;;;6.10;5.50;;;30.90;38.80;;;;;;5096959;28;20431;-69
2023/06/19 10:45:48;;;;;;;5.53;5.00;;;31.00;38.70;;;;;;5096650;28;20478;-69
2023/06/19 10:48:21;;;;;;;6.00;5.20;;;31.10;38.50;;;;;;5096600;28;20793;-71
2023/06/19 10:50:49;;;;;;;5.90;4.77;;;31.20;39.00;;;;;;5096555;28;20898;-69
2023/06/19 10:53:25;;;;;;;5.40;4.83;;;31.40;39.60;;;;;;5096844;28;20861;-68
2023/06/19 10:55:56;;;;;;;5.50;4.90;;;31.50;38.30;;;;;;5096768;28;20424;-69
2023/06/19 10:58:25;;;;;;;5.50;5.00;;;31.50;38.00;;;;;;5096473;28;20912;-72
2023/06/19 11:00:52;;;;;;;7.17;5.77;;;31.60;37.60;;;;;;5095137;28;20471;-69
2023/06/19 11:03:20;;;;;;;5.77;5.10;;;31.70;38.10;;;;;;5096632;28;20439;-69
2023/06/19 11:05:48;;;;;;;7.00;5.13;;;31.70;37.90;;;;;;5096618;28;20435;-68
2023/06/19 11:08:19;;;;;;;5.43;4.87;;;31.80;36.90;;;;;;5096318;28;20869;-68
2023/06/19 11:10:46;;;;;;;6.77;6.17;;;31.90;35.50;;;;;;5096237;28;20902;-68
2023/06/19 11:13:15;;;;;;;5.53;5.03;;;32.00;37.20;;;;;;5096674;28;20933;-69
2023/06/19 11:15:44;;;;;;;6.20;5.60;;;32.00;36.00;;;;;;5096013;28;20473;-69
2023/06/19 11:18:12;;;;;;;6.07;5.37;;;32.00;34.80;;;;;;5096981;28;20503;-69
2023/06/19 11:20:46;;;;;;;6.10;5.60;;;32.00;35.50;;;;;;5115767;28;20466;-68
2023/06/19 11:23:14;;;;;;;5.00;4.50;;;32.00;36.70;;;;;;5116194;28;20543;-69
2023/06/19 11:25:42;;;;;;;5.97;5.37;;;32.10;37.30;;;;;;5116465;28;20470;-69
2023/06/19 11:28:13;;;;;;;6.13;5.53;;;32.30;36.90;;;;;;5113711;28;20438;-68
2023/06/19 11:30:43;;;;;;;6.20;5.20;;;32.30;34.40;;;;;;5116365;28;20423;-68
2023/06/19 11:33:22;;;;;;;6.00;5.10;;;32.30;33.50;;;;;;5116361;28;20484;-68
2023/06/19 11:35:50;;;;;;;6.43;5.23;;;32.30;35.80;;;;;;5116144;28;20457;-69
2023/06/19 11:38:19;;;;;;;8.17;7.33;;;32.40;36.30;;;;;;5115925;28;20502;-69
2023/06/19 11:40:46;;;;;;;5.50;5.00;;;32.50;36.70;;;;;;5112777;28;20514;-68
2023/06/19 11:43:24;;;;;;;5.33;4.83;;;32.50;35.50;;;;;;5116283;28;20454;-69
2023/06/19 11:45:52;;;;;;;5.63;5.03;;;32.50;36.10;;;;;;5115860;28;20957;-68
2023/06/19 11:48:24;;;;;;;9.27;7.83;;;32.40;36.70;;;;;;5116018;28;20473;-68
2023/06/19 11:50:52;;;;;;;6.27;5.47;;;32.30;36.40;;;;;;5115684;28;20415;-68
2023/06/19 11:53:20;;;;;;;5.40;4.63;;;32.30;37.60;;;;;;5115922;28;20770;-68
2023/06/19 11:55:47;;;;;;;10.30;4.30;;;32.30;37.90;;;;;;5115968;28;20445;-68
2023/06/19 11:58:15;;;;;;;7.47;5.10;;;32.40;38.10;;;;;;5115370;28;20956;-70
2023/06/19 12:00:42;;;;;;;4.73;4.33;;;32.50;38.00;;;;;;5115447;28;20521;-69
2023/06/19 12:03:09;;;;;;;5.37;4.63;;;32.60;37.40;;;;;;5115457;28;20446;-69
2023/06/19 12:05:41;;;;;;;8.20;5.20;;;32.60;36.80;;;;;;5115863;28;20439;-68
2023/06/19 12:08:08;;;;;;;5.70;4.80;;;32.70;36.90;;;;;;5115675;28;20423;-69
2023/06/19 12:10:35;;;;;;;5.33;4.40;;;32.70;37.70;;;;;;5115631;28;20850;-68
2023/06/19 12:13:03;;;;;;;5.80;4.83;;;32.80;36.60;;;;;;5115327;28;20439;-68
2023/06/19 12:15:30;;;;;;;8.50;5.13;;;32.80;35.60;;;;;;5115240;28;20533;-68
2023/06/19 12:17:57;;;;;;;5.90;4.70;;;32.80;35.70;;;;;;5115466;28;20517;-69
2023/06/19 12:20:25;;;;;;;4.53;3.97;;;32.70;36.50;;;;;;5114930;28;20443;-69
2023/06/19 12:22:53;;;;;;;4.97;4.47;;;32.70;36.70;;;;;;5115508;28;20422;-68
2023/06/19 12:25:20;;;;;;;4.90;4.40;;;32.80;37.30;;;;;;5115411;28;20466;-69
2023/06/19 12:27:49;;;;;;;8.57;4.20;;;32.90;37.40;;;;;;5115348;28;20503;-69
2023/06/19 12:30:16;;;;;;;7.27;4.57;;;32.90;37.90;;;;;;5114936;28;20446;-69
2023/06/19 12:32:43;;;;;;;4.93;4.20;;;33.00;36.90;;;;;;5114909;28;20477;-68
2023/06/19 12:35:10;;;;;;;5.60;4.30;;;33.00;36.70;;;;;;5114850;28;20959;-68
2023/06/19 12:37:37;;;;;;;5.43;4.83;;;33.10;36.90;;;;;;5114800;28;20502;-69
2023/06/19 12:40:10;;;;;;;5.50;4.87;;;33.20;37.10;;;;;;5115119;28;20439;-68
2023/06/19 12:42:37;;;;;;;4.90;4.40;;;33.30;36.00;;;;;;5115348;28;20427;-69